x

New York Harbor Entrance - 15 Nm Se Of Breezy Point , Ny (44065) Wave Buoy

5:50am - Wed 22nd Feb 2017 All times are EST. -5 hours from GMT.

  • Sig Wave height 1.6ft
  • Swell Direction
  • Peak Period 8s
  • Average Period 4s
  • Wind
    4mph, 7mph gusts
  • Sea Temp 42°f
  • Air Temp 42°f
  • Sea Pressure 1017.9mb
  • New York Harbor Entrance - 15 Nm Se Of Breezy Point , Ny
  • New York Harbor Entrance - 15 Nm Se Of Breezy Point , Ny

More Historic Weather Station data

Upgrade to MSW Pro to gain access to the past 30 days of data for over 8000 Wavebouys and Weather Stations around the globe.

Join Pro

Comparision Forecast

View Surf forecast
   
Wed 02/22 5:50am 1.6ft 8s 4s 4 7 mph 1017.9mb 42f 42f
4:50am 1.6ft 8s 4s 2
mph
1018.2mb 42f 42f
3:50am 2ft 6s 4s 7 9 mph 1018.4mb 42f 42f
2:50am 2ft 8s 4s 11 13 mph 1017.7mb 42f 43f
1:50am 1.6ft 6s 4s 9 11 mph 1018.3mb 42f 42f
12:50am 2ft 7s 4s 9 11 mph 1019.5mb 42f 42f
Tue 02/21 10:50pm 2ft 3s 4s 9 11 mph 1021.2mb 42f 43f
9:50pm 2ft 3s 4s 9 11 mph 1022.2mb 42f 42f
8:50pm 2ft 3s 4s 13
mph
1022.3mb 42f 43f
7:50pm 2.5ft 5s 4s 13 16 mph 1022.3mb 42f 42f
6:50pm 2.5ft 3s 4s 13 18 mph 1023mb 42f 42f
5:50pm 2.5ft 5s 4s 16 18 mph 1023.1mb 42f 42f
4:50pm 2ft 5s 4s 13 16 mph 1023.7mb 42f 42f
3:50pm 2ft 5s 4s 11 13 mph 1023.8mb 42f 41f
2:50pm 2ft 5s 4s 9 11 mph 1024.5mb 42f 41f
1:50pm 2.5ft 5s 4s 9 11 mph 1025.4mb 42f 40f
12:50pm 2.5ft 6s 4s 7 9 mph 1026.5mb 42f 40f
11:50am 2ft 5s 4s 9 11 mph 1027.5mb 42f 40f
10:50am 2.5ft 5s 4s 11
mph
1028.1mb 42f 39f
9:50am 2.5ft 4s 4s 9 11 mph 1028.4mb 42f 39f
8:50am 2ft 4s 4s 11 13 mph 1028.4mb 42f 39f
7:50am 2ft 4s 4s 11 13 mph 1028.7mb 42f 38f
6:50am 2.5ft 4s 4s 16 18 mph 1027.7mb 42f 38f
5:50am 2ft 4s 3s 16 18 mph 1028.3mb 42f 38f
4:50am 2ft 3s 3s 13 16 mph 1028.2mb 42f 39f
3:50am 2.5ft 3s 3s 16 18 mph 1027.5mb 42f 39f
2:50am 2.5ft 3s 3s 16 20 mph 1027.3mb 42f 39f
1:50am 2ft 3s 3s 16 20 mph 1027.6mb 42f 40f
12:50am 2.5ft 4s 3s 16 20 mph 1027.4mb 42f 40f
Mon 02/20 11:50pm 2.5ft 4s 3s 18 20 mph 1027.2mb 42f 41f
10:50pm 2.5ft 4s 3s 20 22 mph 1026.8mb 42f 42f
9:50pm 3ft 4s 3s 25 29 mph 1026.3mb 42f 43f
8:50pm 2.5ft 3s 3s 22 27 mph 1025.9mb 42f 43f
7:50pm 1.6ft 3s 3s 18 25 mph 1025.4mb 43f 44f
6:50pm 1.3ft 8s 4s 13 16 mph 1024.8mb 43f 46f
5:50pm 1.3ft 7s 4s 9 11 mph 1023.6mb 43f 47f
4:50pm 1ft 13s 6s 11 13 mph 1022.4mb 43f 48f
3:50pm 1ft 9s 6s 11
mph
1021.5mb 44f 48f
2:50pm 1.3ft 8s 5s 7
mph
1021.1mb 43f 47f
1:50pm 1.6ft 8s 4s 11
mph
1021.3mb 43f 46f
12:50pm 1.3ft 8s 4s 11 16 mph 1021.6mb 43f 47f
11:50am 1.6ft 9s 4s 13
mph
1022mb 43f 44f
10:50am 1.3ft 3s 4s 16 18 mph 1022.1mb 42f 44f
9:50am 2ft 3s 4s 13 16 mph 1022mb 42f 44f
8:50am 1.6ft 6s 4s 13 16 mph 1021.2mb 42f 44f
7:50am 2ft 6s 4s 13 16 mph 1020.5mb 42f 44f
6:50am 1.6ft 6s 4s 13 16 mph 1019.4mb 42f 44f
5:50am 1.6ft 7s 4s 13
mph
1018.6mb 42f 45f
4:50am 2ft 7s 4s 11 13 mph 1017.7mb 42f 44f
3:50am 2.5ft 7s 4s 16 18 mph 1016.7mb 42f 46f
2:50am 2ft 7s 5s 13 18 mph 1015.9mb 42f 47f
1:50am 2ft 7s 5s 7 9 mph 1015.9mb 42f 47f
12:50am 2.5ft 7s 5s 9 11 mph 1015.5mb 42f 49f
Sun 02/19 11:50pm 2.5ft 7s 6s 11 13 mph 1014.7mb 42f 48f
10:50pm 2.5ft 7s 6s 7
mph
1014.4mb 42f 48f
9:50pm 2.5ft 7s 6s 9 11 mph 1013.9mb 43f 50f
8:50pm 2.5ft 7s 6s 9
mph
1012.9mb 43f 53f
7:50pm 2.5ft 7s 6s 9
mph
1012.1mb 43f 52f
6:50pm 2.5ft 7s 6s 7 9 mph 1011.8mb 43f 52f
5:50pm 2.5ft 7s 6s 11 13 mph 1011.1mb 44f 53f
4:50pm 2.5ft 7s 6s 11
mph
1010.3mb 44f 53f
3:50pm 2.5ft 7s 6s 7 9 mph 1009.4mb 44f 54f
2:50pm 2.5ft 6s 5s 9 11 mph 1008.8mb 43f 55f
1:50pm 2ft 6s 5s 7 9 mph 1008.9mb 42f 52f
12:50pm 2ft 5s 5s 11 13 mph 1009mb 43f 53f
11:50am 2.5ft 6s 5s 9
mph
1009.6mb 42f 51f
10:50am 2ft 5s 5s 7
mph
1009.6mb 42f 49f
9:50am 2ft 5s 4s 7
mph
1009.7mb 41f 47f
8:50am 2ft 5s 5s 9
mph
1009.2mb 41f 48f
7:50am 2ft 5s 5s 9
mph
1008.7mb 41f 47f
6:50am 2.5ft 5s 4s 7
mph
1007.5mb 41f 47f
5:50am 2.5ft 6s 4s 9
mph
1007mb 42f 47f
4:50am 2.5ft 6s 4s 7 9 mph 1005.7mb 42f 49f